sensor_id;sensor_type;location;lat;lon;timestamp;P1;P2;P0
57623;PMS7003;43448;52.264;20.644;2023-03-20T00:00:01;53;38;
57623;PMS7003;43448;52.264;20.644;2023-03-20T00:10:00;47;39;
57623;PMS7003;43448;52.264;20.644;2023-03-20T00:20:00;46;39;
57623;PMS7003;43448;52.264;20.644;2023-03-20T00:30:00;49;39;
57623;PMS7003;43448;52.264;20.644;2023-03-20T00:40:01;47;37;
57623;PMS7003;43448;52.264;20.644;2023-03-20T00:50:00;53;40;
57623;PMS7003;43448;52.264;20.644;2023-03-20T01:00:02;52;39;
57623;PMS7003;43448;52.264;20.644;2023-03-20T01:10:00;50;39;
57623;PMS7003;43448;52.264;20.644;2023-03-20T01:20:00;50;37;
57623;PMS7003;43448;52.264;20.644;2023-03-20T01:30:01;51;38;
57623;PMS7003;43448;52.264;20.644;2023-03-20T01:40:00;50;39;
57623;PMS7003;43448;52.264;20.644;2023-03-20T01:50:32;52;40;
57623;PMS7003;43448;52.264;20.644;2023-03-20T02:00:03;52;41;
57623;PMS7003;43448;52.264;20.644;2023-03-20T02:10:01;51;41;
57623;PMS7003;43448;52.264;20.644;2023-03-20T02:20:03;51;40;
57623;PMS7003;43448;52.264;20.644;2023-03-20T02:30:06;52;39;
57623;PMS7003;43448;52.264;20.644;2023-03-20T02:40:04;57;41;
57623;PMS7003;43448;52.264;20.644;2023-03-20T02:50:02;53;42;
57623;PMS7003;43448;52.264;20.644;2023-03-20T03:00:02;51;42;
57623;PMS7003;43448;52.264;20.644;2023-03-20T03:10:02;49;40;
57623;PMS7003;43448;52.264;20.644;2023-03-20T03:20:02;49;41;
57623;PMS7003;43448;52.264;20.644;2023-03-20T03:30:02;53;43;
57623;PMS7003;43448;52.264;20.644;2023-03-20T03:40:02;52;40;
57623;PMS7003;43448;52.264;20.644;2023-03-20T03:50:02;55;43;
57623;PMS7003;43448;52.264;20.644;2023-03-20T04:00:01;53;41;
57623;PMS7003;43448;52.264;20.644;2023-03-20T04:10:00;54;42;
57623;PMS7003;43448;52.264;20.644;2023-03-20T04:20:00;56;43;
57623;PMS7003;43448;52.264;20.644;2023-03-20T04:30:00;55;44;
57623;PMS7003;43448;52.264;20.644;2023-03-20T04:40:01;52;42;
57623;PMS7003;43448;52.264;20.644;2023-03-20T04:50:01;56;45;
57623;PMS7003;43448;52.264;20.644;2023-03-20T05:00:01;57;45;
57623;PMS7003;43448;52.264;20.644;2023-03-20T05:10:01;57;44;
57623;PMS7003;43448;52.264;20.644;2023-03-20T05:20:01;57;44;
57623;PMS7003;43448;52.264;20.644;2023-03-20T05:30:00;60;45;
57623;PMS7003;43448;52.264;20.644;2023-03-20T05:40:00;56;45;
57623;PMS7003;43448;52.264;20.644;2023-03-20T05:50:01;55;44;
57623;PMS7003;43448;52.264;20.644;2023-03-20T06:00:01;56;42;
57623;PMS7003;43448;52.264;20.644;2023-03-20T06:10:00;57;46;
57623;PMS7003;43448;52.264;20.644;2023-03-20T06:20:00;58;45;
57623;PMS7003;43448;52.264;20.644;2023-03-20T06:30:00;56;44;
57623;PMS7003;43448;52.264;20.644;2023-03-20T06:40:01;55;42;
57623;PMS7003;43448;52.264;20.644;2023-03-20T06:50:00;54;42;
57623;PMS7003;43448;52.264;20.644;2023-03-20T07:00:01;51;42;
57623;PMS7003;43448;52.264;20.644;2023-03-20T07:10:01;56;42;
57623;PMS7003;43448;52.264;20.644;2023-03-20T07:20:00;56;44;
57623;PMS7003;43448;52.264;20.644;2023-03-20T07:30:00;53;41;
57623;PMS7003;43448;52.264;20.644;2023-03-20T07:40:01;51;40;
57623;PMS7003;43448;52.264;20.644;2023-03-20T07:50:00;58;43;
57623;PMS7003;43448;52.264;20.644;2023-03-20T08:00:01;52;40;
57623;PMS7003;43448;52.264;20.644;2023-03-20T08:10:01;52;41;
57623;PMS7003;43448;52.264;20.644;2023-03-20T08:20:00;48;39;
57623;PMS7003;43448;52.264;20.644;2023-03-20T08:30:01;46;37;
57623;PMS7003;43448;52.264;20.644;2023-03-20T08:40:00;46;38;
57623;PMS7003;43448;52.264;20.644;2023-03-20T08:50:00;48;38;
57623;PMS7003;43448;52.264;20.644;2023-03-20T09:00:01;42;34;
57623;PMS7003;43448;52.264;20.644;2023-03-20T09:10:01;44;33;
57623;PMS7003;43448;52.264;20.644;2023-03-20T09:20:00;42;35;
57623;PMS7003;43448;52.264;20.644;2023-03-20T09:30:00;39;33;
57623;PMS7003;43448;52.264;20.644;2023-03-20T09:40:00;40;33;
57623;PMS7003;43448;52.264;20.644;2023-03-20T09:50:05;41;35;
57623;PMS7003;43448;52.264;20.644;2023-03-20T10:00:03;45;33;
57623;PMS7003;43448;52.264;20.644;2023-03-20T10:10:00;44;36;
57623;PMS7003;43448;52.264;20.644;2023-03-20T10:20:02;44;35;
57623;PMS7003;43448;52.264;20.644;2023-03-20T10:30:04;39;32;
57623;PMS7003;43448;52.264;20.644;2023-03-20T10:40:03;32;31;
57623;PMS7003;43448;52.264;20.644;2023-03-20T10:50:02;35;31;
57623;PMS7003;43448;52.264;20.644;2023-03-20T11:00:01;39;35;
57623;PMS7003;43448;52.264;20.644;2023-03-20T11:10:09;41;33;
57623;PMS7003;43448;52.264;20.644;2023-03-20T11:20:01;35;31;
57623;PMS7003;43448;52.264;20.644;2023-03-20T11:30:01;35;30;
57623;PMS7003;43448;52.264;20.644;2023-03-20T11:40:06;38;32;
57623;PMS7003;43448;52.264;20.644;2023-03-20T11:50:01;39;33;
57623;PMS7003;43448;52.264;20.644;2023-03-20T12:00:03;38;31;
57623;PMS7003;43448;52.264;20.644;2023-03-20T12:10:01;34;31;
57623;PMS7003;43448;52.264;20.644;2023-03-20T12:20:02;35;31;
57623;PMS7003;43448;52.264;20.644;2023-03-20T12:30:03;35;31;
57623;PMS7003;43448;52.264;20.644;2023-03-20T12:40:01;34;29;
57623;PMS7003;43448;52.264;20.644;2023-03-20T12:50:02;37;32;
57623;PMS7003;43448;52.264;20.644;2023-03-20T13:00:04;38;30;
57623;PMS7003;43448;52.264;20.644;2023-03-20T13:10:02;32;30;
57623;PMS7003;43448;52.264;20.644;2023-03-20T13:20:08;33;31;
57623;PMS7003;43448;52.264;20.644;2023-03-20T13:30:02;33;32;
57623;PMS7003;43448;52.264;20.644;2023-03-20T13:40:03;35;32;
57623;PMS7003;43448;52.264;20.644;2023-03-20T13:50:04;40;32;
57623;PMS7003;43448;52.264;20.644;2023-03-20T14:00:04;33;30;
57623;PMS7003;43448;52.264;20.644;2023-03-20T14:10:31;36;31;
57623;PMS7003;43448;52.264;20.644;2023-03-20T14:20:08;40;31;
57623;PMS7003;43448;52.264;20.644;2023-03-20T14:30:20;29;28;
57623;PMS7003;43448;52.264;20.644;2023-03-20T14:40:02;34;30;
57623;PMS7003;43448;52.264;20.644;2023-03-20T14:50:02;40;30;
57623;PMS7003;43448;52.264;20.644;2023-03-20T15:00:01;33;30;
57623;PMS7003;43448;52.264;20.644;2023-03-20T15:10:00;30;27;
57623;PMS7003;43448;52.264;20.644;2023-03-20T15:20:01;36;30;
57623;PMS7003;43448;52.264;20.644;2023-03-20T15:30:00;28;25;
57623;PMS7003;43448;52.264;20.644;2023-03-20T15:40:01;28;25;
57623;PMS7003;43448;52.264;20.644;2023-03-20T15:50:01;26;23;
57623;PMS7003;43448;52.264;20.644;2023-03-20T16:00:01;28;26;
57623;PMS7003;43448;52.264;20.644;2023-03-20T16:10:00;30;25;
57623;PMS7003;43448;52.264;20.644;2023-03-20T16:20:01;21;20;
57623;PMS7003;43448;52.264;20.644;2023-03-20T16:30:03;25;21;
57623;PMS7003;43448;52.264;20.644;2023-03-20T16:40:03;23;23;
57623;PMS7003;43448;52.264;20.644;2023-03-20T16:50:04;25;21;
57623;PMS7003;43448;52.264;20.644;2023-03-20T17:00:03;19;19;
57623;PMS7003;43448;52.264;20.644;2023-03-20T17:10:10;23;18;
57623;PMS7003;43448;52.264;20.644;2023-03-20T17:20:00;31;26;
57623;PMS7003;43448;52.264;20.644;2023-03-20T17:30:00;36;32;
57623;PMS7003;43448;52.264;20.644;2023-03-20T17:40:00;30;28;
57623;PMS7003;43448;52.264;20.644;2023-03-20T17:50:01;25;23;
57623;PMS7003;43448;52.264;20.644;2023-03-20T18:00:02;26;19;
57623;PMS7003;43448;52.264;20.644;2023-03-20T18:10:00;33;26;
57623;PMS7003;43448;52.264;20.644;2023-03-20T18:20:00;25;21;
57623;PMS7003;43448;52.264;20.644;2023-03-20T18:30:01;23;22;
57623;PMS7003;43448;52.264;20.644;2023-03-20T18:40:00;29;25;
57623;PMS7003;43448;52.264;20.644;2023-03-20T18:50:01;22;21;
57623;PMS7003;43448;52.264;20.644;2023-03-20T19:00:01;27;22;
57623;PMS7003;43448;52.264;20.644;2023-03-20T19:10:00;26;22;
57623;PMS7003;43448;52.264;20.644;2023-03-20T19:20:00;25;25;
57623;PMS7003;43448;52.264;20.644;2023-03-20T19:30:00;30;25;
57623;PMS7003;43448;52.264;20.644;2023-03-20T19:40:00;26;23;
57623;PMS7003;43448;52.264;20.644;2023-03-20T19:50:01;34;26;
57623;PMS7003;43448;52.264;20.644;2023-03-20T20:00:01;34;28;
57623;PMS7003;43448;52.264;20.644;2023-03-20T20:10:00;25;25;
57623;PMS7003;43448;52.264;20.644;2023-03-20T20:20:00;28;24;
57623;PMS7003;43448;52.264;20.644;2023-03-20T20:30:01;25;24;
57623;PMS7003;43448;52.264;20.644;2023-03-20T20:40:01;23;21;
57623;PMS7003;43448;52.264;20.644;2023-03-20T20:50:00;29;25;
57623;PMS7003;43448;52.264;20.644;2023-03-20T21:00:01;23;19;
57623;PMS7003;43448;52.264;20.644;2023-03-20T21:10:01;22;21;
57623;PMS7003;43448;52.264;20.644;2023-03-20T21:20:01;22;20;
57623;PMS7003;43448;52.264;20.644;2023-03-20T21:30:01;20;19;
57623;PMS7003;43448;52.264;20.644;2023-03-20T21:40:01;22;18;
57623;PMS7003;43448;52.264;20.644;2023-03-20T21:50:01;22;17;
57623;PMS7003;43448;52.264;20.644;2023-03-20T22:00:01;18;18;
57623;PMS7003;43448;52.264;20.644;2023-03-20T22:10:01;20;18;
57623;PMS7003;43448;52.264;20.644;2023-03-20T22:20:01;18;16;
57623;PMS7003;43448;52.264;20.644;2023-03-20T22:30:00;18;16;
57623;PMS7003;43448;52.264;20.644;2023-03-20T22:40:00;20;16;
57623;PMS7003;43448;52.264;20.644;2023-03-20T22:50:00;22;19;
57623;PMS7003;43448;52.264;20.644;2023-03-20T23:00:01;18;16;
57623;PMS7003;43448;52.264;20.644;2023-03-20T23:10:01;18;17;
57623;PMS7003;43448;52.264;20.644;2023-03-20T23:20:01;21;20;
57623;PMS7003;43448;52.264;20.644;2023-03-20T23:30:01;18;18;
57623;PMS7003;43448;52.264;20.644;2023-03-20T23:40:00;13;13;
57623;PMS7003;43448;52.264;20.644;2023-03-20T23:50:00;17;16;
